To NAV CANADA Home Page Login to a new session Search on AWWS site Feedback and Comments Disclaimer Vers la page française équivalente Tips FAQ What's new on the site To the Forecasts and Observations / NOTAM section To "File a Flight Plan" website Publications and other links Update of the User's profile FIC Telephone Numbers My Weather Data Folder Route Weather Data Regional Weather Data Local Weather Data To the Forecasts and Observations / NOTAM section
Request Generated 07/28/2016 at 18:16:57 UTC . Weather information available at that time is displayed.

METAR/TAF

MARYS HARBOUR/NL    (show WxCam)

METAR CYMH 281800Z AUTO 13010KT 9SM CLR 17/12 A2991 RMK SLP129
DENSITY ALT 200FT=
SPECI CYMH 281726Z AUTO 12008KT 090V160 9SM SCT015 BKN050 17/12 A2991
RMK SLP131 DENSITY ALT 200FT=
METAR CYMH 281700Z AUTO 11008KT 080V150 9SM BKN015 OVC046 17/12 A2992
RMK SLP132 DENSITY ALT 200FT=
SPECI CYMH 281654Z AUTO 11007KT 060V150 9SM BKN015 BKN046 17/13 A2992
RMK SLP133 DENSITY ALT 200FT=
SPECI CYMH 281644Z AUTO 09007KT 070V130 9SM SCT017 OVC046 16/12 A2992
RMK SLP132 DENSITY ALT 100FT=
METAR CYMH 281600Z AUTO 09007KT 050V110 9SM BKN015 BKN055 15/11 A2993
RMK SLP135=

TAF CYMH 281338Z 2814/2902 08005KT P6SM SCT020 OVC040 TEMPO 2814/2820
3SM -SHRA BR OVC020
FM282000 10005KT P6SM BKN030 TEMPO 2820/2824 P6SM -SHRA BKN020
FM290000 17008KT 5SM -SHRA BR OVC008
RMK FCST BASED ON AUTO OBS. NXT FCST BY 282000Z=
Your time UTC time
Weather data provided by Environment Canada and NAV CANADA